sensor_id;sensor_type;location;lat;lon;timestamp;P1;durP1;ratioP1;P2;durP2;ratioP2
6207;SDS011;3137;51.550;7.060;2023-11-18T00:01:30;86.33;;;32.13;;
6207;SDS011;3137;51.550;7.060;2023-11-18T00:03:58;80.67;;;31.10;;
6207;SDS011;3137;51.550;7.060;2023-11-18T00:06:24;69.50;;;29.60;;
6207;SDS011;3137;51.550;7.060;2023-11-18T00:08:51;73.03;;;27.93;;
6207;SDS011;3137;51.550;7.060;2023-11-18T00:11:17;72.67;;;29.90;;
6207;SDS011;3137;51.550;7.060;2023-11-18T00:13:44;76.43;;;29.97;;
6207;SDS011;3137;51.550;7.060;2023-11-18T00:16:11;78.03;;;28.77;;
6207;SDS011;3137;51.550;7.060;2023-11-18T00:18:43;66.10;;;28.50;;
6207;SDS011;3137;51.550;7.060;2023-11-18T00:21:09;68.30;;;28.37;;
6207;SDS011;3137;51.550;7.060;2023-11-18T00:23:36;77.40;;;26.73;;
6207;SDS011;3137;51.550;7.060;2023-11-18T00:26:02;59.27;;;26.37;;
6207;SDS011;3137;51.550;7.060;2023-11-18T00:28:29;64.23;;;25.80;;
6207;SDS011;3137;51.550;7.060;2023-11-18T00:30:56;58.20;;;25.03;;
6207;SDS011;3137;51.550;7.060;2023-11-18T00:33:22;50.83;;;23.50;;
6207;SDS011;3137;51.550;7.060;2023-11-18T00:35:49;46.87;;;24.23;;
6207;SDS011;3137;51.550;7.060;2023-11-18T00:38:15;63.40;;;25.03;;
6207;SDS011;3137;51.550;7.060;2023-11-18T00:40:42;49.73;;;23.23;;
6207;SDS011;3137;51.550;7.060;2023-11-18T00:43:08;56.40;;;24.47;;
6207;SDS011;3137;51.550;7.060;2023-11-18T00:45:35;45.27;;;22.67;;
6207;SDS011;3137;51.550;7.060;2023-11-18T00:48:01;55.23;;;22.73;;
6207;SDS011;3137;51.550;7.060;2023-11-18T00:50:28;51.17;;;23.00;;
6207;SDS011;3137;51.550;7.060;2023-11-18T00:52:54;55.07;;;24.23;;
6207;SDS011;3137;51.550;7.060;2023-11-18T00:55:21;48.53;;;21.80;;
6207;SDS011;3137;51.550;7.060;2023-11-18T00:57:47;43.10;;;21.43;;
6207;SDS011;3137;51.550;7.060;2023-11-18T01:00:14;39.53;;;20.93;;
6207;SDS011;3137;51.550;7.060;2023-11-18T01:02:48;41.60;;;21.60;;
6207;SDS011;3137;51.550;7.060;2023-11-18T01:05:16;33.13;;;19.50;;
6207;SDS011;3137;51.550;7.060;2023-11-18T01:07:43;39.83;;;21.50;;
6207;SDS011;3137;51.550;7.060;2023-11-18T01:10:10;36.13;;;19.03;;
6207;SDS011;3137;51.550;7.060;2023-11-18T01:12:37;42.87;;;20.90;;
6207;SDS011;3137;51.550;7.060;2023-11-18T01:15:03;41.70;;;20.17;;
6207;SDS011;3137;51.550;7.060;2023-11-18T01:17:30;49.70;;;22.60;;
6207;SDS011;3137;51.550;7.060;2023-11-18T01:19:57;38.30;;;19.70;;
6207;SDS011;3137;51.550;7.060;2023-11-18T01:22:24;45.37;;;22.03;;
6207;SDS011;3137;51.550;7.060;2023-11-18T01:24:51;43.23;;;20.97;;
6207;SDS011;3137;51.550;7.060;2023-11-18T01:27:17;45.10;;;20.87;;
6207;SDS011;3137;51.550;7.060;2023-11-18T01:29:45;42.20;;;20.37;;
6207;SDS011;3137;51.550;7.060;2023-11-18T01:32:13;48.40;;;21.53;;
6207;SDS011;3137;51.550;7.060;2023-11-18T01:34:40;41.40;;;21.20;;
6207;SDS011;3137;51.550;7.060;2023-11-18T01:37:07;48.70;;;22.40;;
6207;SDS011;3137;51.550;7.060;2023-11-18T01:39:33;50.97;;;23.77;;
6207;SDS011;3137;51.550;7.060;2023-11-18T01:42:00;48.17;;;22.70;;
6207;SDS011;3137;51.550;7.060;2023-11-18T01:44:29;46.43;;;23.70;;
6207;SDS011;3137;51.550;7.060;2023-11-18T01:46:56;46.50;;;21.60;;
6207;SDS011;3137;51.550;7.060;2023-11-18T01:49:24;43.03;;;20.50;;
6207;SDS011;3137;51.550;7.060;2023-11-18T01:51:54;43.90;;;21.93;;
6207;SDS011;3137;51.550;7.060;2023-11-18T01:54:21;43.33;;;19.47;;
6207;SDS011;3137;51.550;7.060;2023-11-18T01:56:50;40.37;;;19.20;;
6207;SDS011;3137;51.550;7.060;2023-11-18T01:59:18;40.70;;;19.80;;
6207;SDS011;3137;51.550;7.060;2023-11-18T02:01:48;42.50;;;20.90;;
6207;SDS011;3137;51.550;7.060;2023-11-18T02:04:17;54.70;;;21.80;;
6207;SDS011;3137;51.550;7.060;2023-11-18T02:06:47;49.17;;;20.80;;
6207;SDS011;3137;51.550;7.060;2023-11-18T02:09:15;50.00;;;22.43;;
6207;SDS011;3137;51.550;7.060;2023-11-18T02:11:45;48.43;;;22.30;;
6207;SDS011;3137;51.550;7.060;2023-11-18T02:14:22;49.37;;;20.50;;
6207;SDS011;3137;51.550;7.060;2023-11-18T02:16:53;52.87;;;22.03;;
6207;SDS011;3137;51.550;7.060;2023-11-18T02:19:25;45.43;;;21.80;;
6207;SDS011;3137;51.550;7.060;2023-11-18T02:21:52;43.00;;;19.17;;
6207;SDS011;3137;51.550;7.060;2023-11-18T02:24:30;48.73;;;19.13;;
6207;SDS011;3137;51.550;7.060;2023-11-18T02:26:59;45.37;;;21.40;;
6207;SDS011;3137;51.550;7.060;2023-11-18T02:29:30;45.97;;;20.67;;
6207;SDS011;3137;51.550;7.060;2023-11-18T02:32:05;39.23;;;20.37;;
6207;SDS011;3137;51.550;7.060;2023-11-18T02:34:58;45.40;;;21.73;;
6207;SDS011;3137;51.550;7.060;2023-11-18T02:37:40;40.13;;;18.70;;
6207;SDS011;3137;51.550;7.060;2023-11-18T02:40:35;41.77;;;20.67;;
6207;SDS011;3137;51.550;7.060;2023-11-18T02:43:04;43.47;;;19.97;;
6207;SDS011;3137;51.550;7.060;2023-11-18T02:45:31;47.67;;;22.77;;
6207;SDS011;3137;51.550;7.060;2023-11-18T02:47:59;52.43;;;22.20;;
6207;SDS011;3137;51.550;7.060;2023-11-18T02:50:26;45.63;;;20.67;;
6207;SDS011;3137;51.550;7.060;2023-11-18T02:52:56;58.70;;;23.63;;
6207;SDS011;3137;51.550;7.060;2023-11-18T02:55:22;56.57;;;22.17;;
6207;SDS011;3137;51.550;7.060;2023-11-18T02:57:50;52.00;;;21.67;;
6207;SDS011;3137;51.550;7.060;2023-11-18T03:00:19;51.13;;;22.20;;
6207;SDS011;3137;51.550;7.060;2023-11-18T03:02:50;50.10;;;21.83;;
6207;SDS011;3137;51.550;7.060;2023-11-18T03:05:18;45.23;;;21.40;;
6207;SDS011;3137;51.550;7.060;2023-11-18T03:07:45;39.40;;;18.93;;
6207;SDS011;3137;51.550;7.060;2023-11-18T03:10:16;40.00;;;19.73;;
6207;SDS011;3137;51.550;7.060;2023-11-18T03:12:49;55.70;;;22.83;;
6207;SDS011;3137;51.550;7.060;2023-11-18T03:15:16;36.87;;;19.20;;
6207;SDS011;3137;51.550;7.060;2023-11-18T03:17:44;48.27;;;23.00;;
6207;SDS011;3137;51.550;7.060;2023-11-18T03:20:14;44.03;;;20.33;;
6207;SDS011;3137;51.550;7.060;2023-11-18T03:22:43;42.87;;;20.27;;
6207;SDS011;3137;51.550;7.060;2023-11-18T03:25:13;41.70;;;19.93;;
6207;SDS011;3137;51.550;7.060;2023-11-18T03:27:40;39.80;;;19.77;;
6207;SDS011;3137;51.550;7.060;2023-11-18T03:30:07;40.20;;;18.57;;
6207;SDS011;3137;51.550;7.060;2023-11-18T03:32:36;41.10;;;20.53;;
6207;SDS011;3137;51.550;7.060;2023-11-18T03:35:04;41.27;;;20.57;;
6207;SDS011;3137;51.550;7.060;2023-11-18T03:37:36;49.27;;;23.23;;
6207;SDS011;3137;51.550;7.060;2023-11-18T03:40:06;34.63;;;19.27;;
6207;SDS011;3137;51.550;7.060;2023-11-18T03:42:40;40.13;;;18.97;;
6207;SDS011;3137;51.550;7.060;2023-11-18T03:45:07;43.97;;;19.83;;
6207;SDS011;3137;51.550;7.060;2023-11-18T03:47:35;44.20;;;21.10;;
6207;SDS011;3137;51.550;7.060;2023-11-18T03:50:02;46.80;;;20.67;;
6207;SDS011;3137;51.550;7.060;2023-11-18T03:52:29;34.13;;;19.70;;
6207;SDS011;3137;51.550;7.060;2023-11-18T03:54:56;47.10;;;20.00;;
6207;SDS011;3137;51.550;7.060;2023-11-18T03:57:22;44.07;;;19.37;;
6207;SDS011;3137;51.550;7.060;2023-11-18T03:59:48;37.97;;;19.67;;
6207;SDS011;3137;51.550;7.060;2023-11-18T04:02:15;45.43;;;19.70;;
6207;SDS011;3137;51.550;7.060;2023-11-18T04:04:41;43.53;;;19.77;;
6207;SDS011;3137;51.550;7.060;2023-11-18T04:07:08;37.97;;;17.67;;
6207;SDS011;3137;51.550;7.060;2023-11-18T04:09:34;30.27;;;18.10;;
6207;SDS011;3137;51.550;7.060;2023-11-18T04:12:01;40.10;;;21.70;;
6207;SDS011;3137;51.550;7.060;2023-11-18T04:14:29;39.37;;;20.07;;
6207;SDS011;3137;51.550;7.060;2023-11-18T04:16:55;40.70;;;19.67;;
6207;SDS011;3137;51.550;7.060;2023-11-18T04:19:23;32.53;;;16.33;;
6207;SDS011;3137;51.550;7.060;2023-11-18T04:21:50;38.83;;;18.60;;
6207;SDS011;3137;51.550;7.060;2023-11-18T04:24:17;49.30;;;22.73;;
6207;SDS011;3137;51.550;7.060;2023-11-18T04:26:43;43.30;;;20.77;;
6207;SDS011;3137;51.550;7.060;2023-11-18T04:29:10;30.87;;;18.30;;
6207;SDS011;3137;51.550;7.060;2023-11-18T04:31:36;30.50;;;15.87;;
6207;SDS011;3137;51.550;7.060;2023-11-18T04:34:03;35.73;;;17.33;;
6207;SDS011;3137;51.550;7.060;2023-11-18T04:36:32;26.90;;;16.63;;
6207;SDS011;3137;51.550;7.060;2023-11-18T04:38:59;35.17;;;17.87;;
6207;SDS011;3137;51.550;7.060;2023-11-18T04:41:25;40.83;;;19.30;;
6207;SDS011;3137;51.550;7.060;2023-11-18T04:43:52;42.80;;;20.43;;
6207;SDS011;3137;51.550;7.060;2023-11-18T04:46:19;38.90;;;19.97;;
6207;SDS011;3137;51.550;7.060;2023-11-18T04:48:47;55.23;;;26.70;;
6207;SDS011;3137;51.550;7.060;2023-11-18T04:51:14;46.83;;;23.03;;
6207;SDS011;3137;51.550;7.060;2023-11-18T04:53:40;38.00;;;20.63;;
6207;SDS011;3137;51.550;7.060;2023-11-18T04:56:07;46.70;;;22.53;;
6207;SDS011;3137;51.550;7.060;2023-11-18T04:58:37;51.03;;;23.13;;
6207;SDS011;3137;51.550;7.060;2023-11-18T05:01:05;38.43;;;21.47;;
6207;SDS011;3137;51.550;7.060;2023-11-18T05:03:31;55.10;;;26.23;;
6207;SDS011;3137;51.550;7.060;2023-11-18T05:05:58;56.30;;;24.00;;
6207;SDS011;3137;51.550;7.060;2023-11-18T05:08:24;52.53;;;23.90;;
6207;SDS011;3137;51.550;7.060;2023-11-18T05:10:52;51.47;;;23.80;;
6207;SDS011;3137;51.550;7.060;2023-11-18T05:13:18;49.83;;;23.53;;
6207;SDS011;3137;51.550;7.060;2023-11-18T05:15:45;50.13;;;23.40;;
6207;SDS011;3137;51.550;7.060;2023-11-18T05:18:13;41.97;;;21.47;;
6207;SDS011;3137;51.550;7.060;2023-11-18T05:20:41;45.90;;;22.47;;
6207;SDS011;3137;51.550;7.060;2023-11-18T05:23:08;42.80;;;23.00;;
6207;SDS011;3137;51.550;7.060;2023-11-18T05:25:41;42.20;;;21.50;;
6207;SDS011;3137;51.550;7.060;2023-11-18T05:28:09;42.37;;;21.77;;
6207;SDS011;3137;51.550;7.060;2023-11-18T05:30:36;37.93;;;19.27;;
6207;SDS011;3137;51.550;7.060;2023-11-18T05:33:03;42.13;;;20.87;;
6207;SDS011;3137;51.550;7.060;2023-11-18T05:35:33;45.37;;;20.33;;
6207;SDS011;3137;51.550;7.060;2023-11-18T05:38:01;38.53;;;18.60;;
6207;SDS011;3137;51.550;7.060;2023-11-18T05:40:29;33.17;;;18.97;;
6207;SDS011;3137;51.550;7.060;2023-11-18T05:42:56;35.23;;;19.57;;
6207;SDS011;3137;51.550;7.060;2023-11-18T05:45:23;35.20;;;19.60;;
6207;SDS011;3137;51.550;7.060;2023-11-18T05:47:58;33.33;;;20.00;;
6207;SDS011;3137;51.550;7.060;2023-11-18T05:50:25;39.83;;;20.27;;
6207;SDS011;3137;51.550;7.060;2023-11-18T05:52:52;32.60;;;18.40;;
6207;SDS011;3137;51.550;7.060;2023-11-18T05:55:19;30.90;;;18.23;;
6207;SDS011;3137;51.550;7.060;2023-11-18T05:57:46;40.43;;;19.13;;
6207;SDS011;3137;51.550;7.060;2023-11-18T06:00:14;37.20;;;19.67;;
6207;SDS011;3137;51.550;7.060;2023-11-18T06:02:50;31.47;;;16.93;;
6207;SDS011;3137;51.550;7.060;2023-11-18T06:05:18;30.40;;;17.23;;
6207;SDS011;3137;51.550;7.060;2023-11-18T06:07:44;29.30;;;16.80;;
6207;SDS011;3137;51.550;7.060;2023-11-18T06:10:11;28.77;;;14.73;;
6207;SDS011;3137;51.550;7.060;2023-11-18T06:12:38;34.10;;;18.43;;
6207;SDS011;3137;51.550;7.060;2023-11-18T06:15:07;29.73;;;18.83;;
6207;SDS011;3137;51.550;7.060;2023-11-18T06:17:35;34.53;;;19.10;;
6207;SDS011;3137;51.550;7.060;2023-11-18T06:20:02;32.37;;;18.60;;
6207;SDS011;3137;51.550;7.060;2023-11-18T06:22:32;34.07;;;18.67;;
6207;SDS011;3137;51.550;7.060;2023-11-18T06:24:58;27.10;;;16.57;;
6207;SDS011;3137;51.550;7.060;2023-11-18T06:27:25;36.23;;;18.73;;
6207;SDS011;3137;51.550;7.060;2023-11-18T06:29:51;37.27;;;19.50;;
6207;SDS011;3137;51.550;7.060;2023-11-18T06:32:20;42.50;;;19.30;;
6207;SDS011;3137;51.550;7.060;2023-11-18T06:34:47;43.80;;;17.90;;
6207;SDS011;3137;51.550;7.060;2023-11-18T06:37:15;32.77;;;17.53;;
6207;SDS011;3137;51.550;7.060;2023-11-18T06:39:41;32.43;;;18.17;;
6207;SDS011;3137;51.550;7.060;2023-11-18T06:42:10;35.83;;;18.23;;
6207;SDS011;3137;51.550;7.060;2023-11-18T06:44:38;34.93;;;19.00;;
6207;SDS011;3137;51.550;7.060;2023-11-18T06:47:04;39.97;;;19.33;;
6207;SDS011;3137;51.550;7.060;2023-11-18T06:49:32;28.97;;;16.73;;
6207;SDS011;3137;51.550;7.060;2023-11-18T06:52:03;28.77;;;16.53;;
6207;SDS011;3137;51.550;7.060;2023-11-18T06:54:30;32.13;;;17.00;;
6207;SDS011;3137;51.550;7.060;2023-11-18T06:56:59;33.50;;;18.00;;
6207;SDS011;3137;51.550;7.060;2023-11-18T06:59:26;33.57;;;16.70;;
6207;SDS011;3137;51.550;7.060;2023-11-18T07:01:52;29.07;;;16.43;;
6207;SDS011;3137;51.550;7.060;2023-11-18T07:04:19;28.70;;;15.27;;
6207;SDS011;3137;51.550;7.060;2023-11-18T07:06:45;28.00;;;17.10;;
6207;SDS011;3137;51.550;7.060;2023-11-18T07:09:11;28.47;;;16.27;;
6207;SDS011;3137;51.550;7.060;2023-11-18T07:11:47;25.17;;;14.63;;
6207;SDS011;3137;51.550;7.060;2023-11-18T07:14:14;28.97;;;17.57;;
6207;SDS011;3137;51.550;7.060;2023-11-18T07:16:41;35.43;;;21.07;;
6207;SDS011;3137;51.550;7.060;2023-11-18T07:19:09;33.63;;;20.13;;
6207;SDS011;3137;51.550;7.060;2023-11-18T07:21:46;32.27;;;19.93;;
6207;SDS011;3137;51.550;7.060;2023-11-18T07:24:13;35.97;;;19.30;;
6207;SDS011;3137;51.550;7.060;2023-11-18T07:26:39;37.80;;;19.43;;
6207;SDS011;3137;51.550;7.060;2023-11-18T07:29:06;33.43;;;17.87;;
6207;SDS011;3137;51.550;7.060;2023-11-18T07:31:35;33.97;;;18.17;;
6207;SDS011;3137;51.550;7.060;2023-11-18T07:34:03;35.73;;;18.07;;
6207;SDS011;3137;51.550;7.060;2023-11-18T07:36:31;36.80;;;19.20;;
6207;SDS011;3137;51.550;7.060;2023-11-18T07:38:59;39.20;;;19.10;;
6207;SDS011;3137;51.550;7.060;2023-11-18T07:41:30;39.67;;;19.07;;
6207;SDS011;3137;51.550;7.060;2023-11-18T07:43:59;37.97;;;18.80;;
6207;SDS011;3137;51.550;7.060;2023-11-18T07:46:26;35.97;;;19.37;;
6207;SDS011;3137;51.550;7.060;2023-11-18T07:48:54;46.77;;;21.93;;
6207;SDS011;3137;51.550;7.060;2023-11-18T07:51:21;41.97;;;22.07;;
6207;SDS011;3137;51.550;7.060;2023-11-18T07:53:49;39.47;;;21.23;;
6207;SDS011;3137;51.550;7.060;2023-11-18T07:56:15;42.57;;;21.97;;
6207;SDS011;3137;51.550;7.060;2023-11-18T07:58:43;45.70;;;21.80;;
6207;SDS011;3137;51.550;7.060;2023-11-18T08:01:13;38.43;;;20.60;;
6207;SDS011;3137;51.550;7.060;2023-11-18T08:03:42;40.07;;;20.93;;
6207;SDS011;3137;51.550;7.060;2023-11-18T08:06:10;50.00;;;21.63;;
6207;SDS011;3137;51.550;7.060;2023-11-18T08:08:38;42.00;;;20.33;;
6207;SDS011;3137;51.550;7.060;2023-11-18T08:11:05;38.17;;;18.50;;
6207;SDS011;3137;51.550;7.060;2023-11-18T08:13:32;40.47;;;19.20;;
6207;SDS011;3137;51.550;7.060;2023-11-18T08:15:58;34.80;;;18.43;;
6207;SDS011;3137;51.550;7.060;2023-11-18T08:18:25;40.07;;;20.00;;
6207;SDS011;3137;51.550;7.060;2023-11-18T08:20:53;35.60;;;18.53;;
6207;SDS011;3137;51.550;7.060;2023-11-18T08:23:20;30.20;;;17.17;;
6207;SDS011;3137;51.550;7.060;2023-11-18T08:25:46;41.77;;;18.97;;
6207;SDS011;3137;51.550;7.060;2023-11-18T08:28:13;32.63;;;17.77;;
6207;SDS011;3137;51.550;7.060;2023-11-18T08:30:40;41.67;;;17.27;;
6207;SDS011;3137;51.550;7.060;2023-11-18T08:33:06;39.53;;;18.47;;
6207;SDS011;3137;51.550;7.060;2023-11-18T08:35:36;37.70;;;17.73;;
6207;SDS011;3137;51.550;7.060;2023-11-18T08:38:03;35.47;;;17.90;;
6207;SDS011;3137;51.550;7.060;2023-11-18T08:40:30;32.47;;;16.77;;
6207;SDS011;3137;51.550;7.060;2023-11-18T08:42:57;31.57;;;17.57;;
6207;SDS011;3137;51.550;7.060;2023-11-18T08:45:27;28.73;;;16.63;;
6207;SDS011;3137;51.550;7.060;2023-11-18T08:47:56;33.03;;;17.87;;
6207;SDS011;3137;51.550;7.060;2023-11-18T08:50:23;28.03;;;17.00;;
6207;SDS011;3137;51.550;7.060;2023-11-18T08:52:51;30.23;;;17.67;;
6207;SDS011;3137;51.550;7.060;2023-11-18T08:55:26;28.57;;;15.40;;
6207;SDS011;3137;51.550;7.060;2023-11-18T08:58:09;29.50;;;16.60;;
6207;SDS011;3137;51.550;7.060;2023-11-18T09:00:50;29.93;;;16.87;;
6207;SDS011;3137;51.550;7.060;2023-11-18T09:03:19;35.13;;;17.07;;
6207;SDS011;3137;51.550;7.060;2023-11-18T09:06:03;30.07;;;15.70;;
6207;SDS011;3137;51.550;7.060;2023-11-18T09:08:33;25.47;;;15.87;;
6207;SDS011;3137;51.550;7.060;2023-11-18T09:11:02;23.30;;;15.60;;
6207;SDS011;3137;51.550;7.060;2023-11-18T09:13:33;30.47;;;16.23;;
6207;SDS011;3137;51.550;7.060;2023-11-18T09:16:05;34.13;;;15.80;;
6207;SDS011;3137;51.550;7.060;2023-11-18T09:18:36;30.87;;;16.90;;
6207;SDS011;3137;51.550;7.060;2023-11-18T09:21:08;32.23;;;15.83;;
6207;SDS011;3137;51.550;7.060;2023-11-18T09:23:41;29.70;;;15.20;;
6207;SDS011;3137;51.550;7.060;2023-11-18T09:26:08;24.60;;;14.27;;
6207;SDS011;3137;51.550;7.060;2023-11-18T09:28:36;31.00;;;15.20;;
6207;SDS011;3137;51.550;7.060;2023-11-18T09:31:04;28.67;;;15.97;;
6207;SDS011;3137;51.550;7.060;2023-11-18T09:33:31;33.10;;;16.40;;
6207;SDS011;3137;51.550;7.060;2023-11-18T09:36:04;29.30;;;14.03;;
6207;SDS011;3137;51.550;7.060;2023-11-18T09:38:34;25.60;;;13.23;;
6207;SDS011;3137;51.550;7.060;2023-11-18T09:41:02;23.53;;;13.43;;
6207;SDS011;3137;51.550;7.060;2023-11-18T09:43:30;21.27;;;13.00;;
6207;SDS011;3137;51.550;7.060;2023-11-18T09:46:12;19.17;;;14.10;;
6207;SDS011;3137;51.550;7.060;2023-11-18T09:48:49;22.43;;;12.43;;
6207;SDS011;3137;51.550;7.060;2023-11-18T09:51:26;26.23;;;14.10;;
6207;SDS011;3137;51.550;7.060;2023-11-18T09:53:59;22.83;;;13.37;;
6207;SDS011;3137;51.550;7.060;2023-11-18T09:56:31;18.70;;;12.50;;
6207;SDS011;3137;51.550;7.060;2023-11-18T10:02:11;18.60;;;12.03;;
6207;SDS011;3137;51.550;7.060;2023-11-18T10:04:38;25.47;;;13.53;;
6207;SDS011;3137;51.550;7.060;2023-11-18T10:07:05;18.83;;;12.60;;
6207;SDS011;3137;51.550;7.060;2023-11-18T10:09:37;18.57;;;12.93;;
6207;SDS011;3137;51.550;7.060;2023-11-18T10:12:07;20.57;;;11.73;;
6207;SDS011;3137;51.550;7.060;2023-11-18T10:14:34;23.53;;;11.90;;
6207;SDS011;3137;51.550;7.060;2023-11-18T10:17:05;16.97;;;12.00;;
6207;SDS011;3137;51.550;7.060;2023-11-18T10:22:28;13.47;;;10.20;;
6207;SDS011;3137;51.550;7.060;2023-11-18T10:24:56;18.33;;;12.00;;
6207;SDS011;3137;51.550;7.060;2023-11-18T10:27:23;22.50;;;11.93;;
6207;SDS011;3137;51.550;7.060;2023-11-18T10:30:11;17.77;;;10.60;;
6207;SDS011;3137;51.550;7.060;2023-11-18T10:32:57;17.50;;;10.23;;
6207;SDS011;3137;51.550;7.060;2023-11-18T10:35:36;11.53;;;10.40;;
6207;SDS011;3137;51.550;7.060;2023-11-18T10:38:03;14.07;;;10.13;;
6207;SDS011;3137;51.550;7.060;2023-11-18T10:40:33;13.33;;;8.60;;
6207;SDS011;3137;51.550;7.060;2023-11-18T10:43:03;10.27;;;9.17;;
6207;SDS011;3137;51.550;7.060;2023-11-18T10:45:36;10.53;;;8.37;;
6207;SDS011;3137;51.550;7.060;2023-11-18T10:48:08;13.63;;;10.07;;
6207;SDS011;3137;51.550;7.060;2023-11-18T10:50:34;11.80;;;9.20;;
6207;SDS011;3137;51.550;7.060;2023-11-18T10:53:01;13.83;;;10.57;;
6207;SDS011;3137;51.550;7.060;2023-11-18T10:55:39;14.00;;;10.47;;
6207;SDS011;3137;51.550;7.060;2023-11-18T10:58:08;11.43;;;10.03;;
6207;SDS011;3137;51.550;7.060;2023-11-18T11:00:51;14.33;;;9.87;;
6207;SDS011;3137;51.550;7.060;2023-11-18T11:03:21;10.60;;;9.60;;
6207;SDS011;3137;51.550;7.060;2023-11-18T11:05:50;12.57;;;9.80;;
6207;SDS011;3137;51.550;7.060;2023-11-18T11:08:18;9.90;;;9.00;;
6207;SDS011;3137;51.550;7.060;2023-11-18T11:11:01;10.93;;;8.50;;
6207;SDS011;3137;51.550;7.060;2023-11-18T11:13:34;10.10;;;9.20;;
6207;SDS011;3137;51.550;7.060;2023-11-18T11:16:04;9.47;;;8.73;;
6207;SDS011;3137;51.550;7.060;2023-11-18T11:18:33;11.07;;;8.97;;
6207;SDS011;3137;51.550;7.060;2023-11-18T11:24:04;15.23;;;8.37;;
6207;SDS011;3137;51.550;7.060;2023-11-18T11:26:55;12.40;;;8.83;;
6207;SDS011;3137;51.550;7.060;2023-11-18T11:29:25;21.57;;;8.90;;
6207;SDS011;3137;51.550;7.060;2023-11-18T11:32:28;7.73;;;7.23;;
6207;SDS011;3137;51.550;7.060;2023-11-18T11:35:01;7.77;;;7.07;;
6207;SDS011;3137;51.550;7.060;2023-11-18T11:37:34;8.17;;;7.40;;
6207;SDS011;3137;51.550;7.060;2023-11-18T11:40:03;7.83;;;7.20;;
6207;SDS011;3137;51.550;7.060;2023-11-18T11:42:33;11.13;;;7.03;;
6207;SDS011;3137;51.550;7.060;2023-11-18T11:45:00;15.23;;;7.13;;
6207;SDS011;3137;51.550;7.060;2023-11-18T11:47:28;8.07;;;7.50;;
6207;SDS011;3137;51.550;7.060;2023-11-18T11:50:13;9.93;;;7.27;;
6207;SDS011;3137;51.550;7.060;2023-11-18T11:52:48;7.50;;;7.07;;
6207;SDS011;3137;51.550;7.060;2023-11-18T11:55:29;7.13;;;6.70;;
6207;SDS011;3137;51.550;7.060;2023-11-18T11:58:02;7.87;;;7.17;;
6207;SDS011;3137;51.550;7.060;2023-11-18T12:00:29;8.10;;;7.23;;
6207;SDS011;3137;51.550;7.060;2023-11-18T12:03:01;7.60;;;6.60;;
6207;SDS011;3137;51.550;7.060;2023-11-18T12:05:30;7.87;;;7.23;;
6207;SDS011;3137;51.550;7.060;2023-11-18T12:07:59;8.00;;;7.33;;
6207;SDS011;3137;51.550;7.060;2023-11-18T12:10:27;12.17;;;8.03;;
6207;SDS011;3137;51.550;7.060;2023-11-18T12:13:10;9.13;;;7.00;;
6207;SDS011;3137;51.550;7.060;2023-11-18T12:15:53;7.73;;;7.23;;
6207;SDS011;3137;51.550;7.060;2023-11-18T12:18:23;7.70;;;6.80;;
6207;SDS011;3137;51.550;7.060;2023-11-18T12:20:50;8.37;;;7.60;;
6207;SDS011;3137;51.550;7.060;2023-11-18T12:23:29;7.63;;;7.13;;
6207;SDS011;3137;51.550;7.060;2023-11-18T12:25:57;9.93;;;7.23;;
6207;SDS011;3137;51.550;7.060;2023-11-18T12:28:25;8.50;;;7.83;;
6207;SDS011;3137;51.550;7.060;2023-11-18T12:31:02;8.20;;;7.40;;
6207;SDS011;3137;51.550;7.060;2023-11-18T12:41:48;7.80;;;7.23;;
6207;SDS011;3137;51.550;7.060;2023-11-18T12:44:36;11.17;;;9.77;;
6207;SDS011;3137;51.550;7.060;2023-11-18T12:47:06;15.27;;;11.00;;
6207;SDS011;3137;51.550;7.060;2023-11-18T12:49:45;18.17;;;10.60;;
6207;SDS011;3137;51.550;7.060;2023-11-18T12:52:16;11.37;;;10.40;;
6207;SDS011;3137;51.550;7.060;2023-11-18T12:54:44;7.50;;;6.90;;
6207;SDS011;3137;51.550;7.060;2023-11-18T12:57:18;8.60;;;7.73;;
6207;SDS011;3137;51.550;7.060;2023-11-18T12:59:49;8.73;;;7.93;;
6207;SDS011;3137;51.550;7.060;2023-11-18T13:02:16;9.60;;;8.07;;
6207;SDS011;3137;51.550;7.060;2023-11-18T13:04:50;8.50;;;7.73;;
6207;SDS011;3137;51.550;7.060;2023-11-18T13:07:19;8.97;;;8.37;;
6207;SDS011;3137;51.550;7.060;2023-11-18T13:09:47;9.23;;;8.40;;
6207;SDS011;3137;51.550;7.060;2023-11-18T13:12:14;9.73;;;8.83;;
6207;SDS011;3137;51.550;7.060;2023-11-18T13:14:42;13.23;;;9.00;;
6207;SDS011;3137;51.550;7.060;2023-11-18T13:17:09;8.63;;;7.80;;
6207;SDS011;3137;51.550;7.060;2023-11-18T13:19:38;9.03;;;7.77;;
6207;SDS011;3137;51.550;7.060;2023-11-18T13:22:06;8.07;;;7.33;;
6207;SDS011;3137;51.550;7.060;2023-11-18T13:24:36;9.93;;;7.53;;
6207;SDS011;3137;51.550;7.060;2023-11-18T13:27:06;8.73;;;7.93;;
6207;SDS011;3137;51.550;7.060;2023-11-18T13:29:35;8.43;;;7.93;;
6207;SDS011;3137;51.550;7.060;2023-11-18T13:32:03;8.40;;;7.70;;
6207;SDS011;3137;51.550;7.060;2023-11-18T13:34:31;7.00;;;6.53;;
6207;SDS011;3137;51.550;7.060;2023-11-18T13:37:05;8.17;;;7.40;;
6207;SDS011;3137;51.550;7.060;2023-11-18T13:39:33;6.80;;;6.33;;
6207;SDS011;3137;51.550;7.060;2023-11-18T13:42:34;8.07;;;7.13;;
6207;SDS011;3137;51.550;7.060;2023-11-18T13:45:00;7.87;;;6.83;;
6207;SDS011;3137;51.550;7.060;2023-11-18T13:47:35;6.33;;;6.03;;
6207;SDS011;3137;51.550;7.060;2023-11-18T13:50:06;6.10;;;5.60;;
6207;SDS011;3137;51.550;7.060;2023-11-18T13:52:35;7.47;;;6.97;;
6207;SDS011;3137;51.550;7.060;2023-11-18T13:55:02;7.63;;;6.83;;
6207;SDS011;3137;51.550;7.060;2023-11-18T13:57:32;7.47;;;6.83;;
6207;SDS011;3137;51.550;7.060;2023-11-18T13:59:59;10.90;;;6.53;;
6207;SDS011;3137;51.550;7.060;2023-11-18T14:02:26;5.77;;;5.57;;
6207;SDS011;3137;51.550;7.060;2023-11-18T14:04:54;7.10;;;6.07;;
6207;SDS011;3137;51.550;7.060;2023-11-18T14:07:22;7.80;;;7.17;;
6207;SDS011;3137;51.550;7.060;2023-11-18T14:09:50;7.00;;;6.70;;
6207;SDS011;3137;51.550;7.060;2023-11-18T14:12:20;7.13;;;6.60;;
6207;SDS011;3137;51.550;7.060;2023-11-18T14:14:48;11.40;;;6.40;;
6207;SDS011;3137;51.550;7.060;2023-11-18T14:17:15;7.07;;;6.73;;
6207;SDS011;3137;51.550;7.060;2023-11-18T14:19:43;6.77;;;6.43;;
6207;SDS011;3137;51.550;7.060;2023-11-18T14:22:09;11.80;;;6.57;;
6207;SDS011;3137;51.550;7.060;2023-11-18T14:24:36;7.73;;;6.27;;
6207;SDS011;3137;51.550;7.060;2023-11-18T14:27:03;8.20;;;6.87;;
6207;SDS011;3137;51.550;7.060;2023-11-18T14:29:31;6.90;;;6.27;;
6207;SDS011;3137;51.550;7.060;2023-11-18T14:31:57;7.33;;;6.67;;
6207;SDS011;3137;51.550;7.060;2023-11-18T14:34:24;8.20;;;6.23;;
6207;SDS011;3137;51.550;7.060;2023-11-18T14:36:51;5.17;;;5.03;;
6207;SDS011;3137;51.550;7.060;2023-11-18T14:39:18;5.50;;;5.10;;
6207;SDS011;3137;51.550;7.060;2023-11-18T14:41:48;4.97;;;4.67;;
6207;SDS011;3137;51.550;7.060;2023-11-18T14:44:16;6.00;;;4.70;;
6207;SDS011;3137;51.550;7.060;2023-11-18T14:46:45;5.40;;;5.10;;
6207;SDS011;3137;51.550;7.060;2023-11-18T14:49:12;5.33;;;5.03;;
6207;SDS011;3137;51.550;7.060;2023-11-18T14:51:38;6.00;;;5.57;;
6207;SDS011;3137;51.550;7.060;2023-11-18T14:54:06;5.27;;;4.97;;
6207;SDS011;3137;51.550;7.060;2023-11-18T14:56:33;7.03;;;6.63;;
6207;SDS011;3137;51.550;7.060;2023-11-18T14:59:01;8.97;;;7.80;;
6207;SDS011;3137;51.550;7.060;2023-11-18T15:01:27;8.07;;;7.33;;
6207;SDS011;3137;51.550;7.060;2023-11-18T15:03:55;5.70;;;5.40;;
6207;SDS011;3137;51.550;7.060;2023-11-18T15:06:26;5.87;;;5.57;;
6207;SDS011;3137;51.550;7.060;2023-11-18T15:08:52;7.43;;;6.87;;
6207;SDS011;3137;51.550;7.060;2023-11-18T15:11:23;6.00;;;5.60;;
6207;SDS011;3137;51.550;7.060;2023-11-18T15:13:50;5.67;;;5.37;;
6207;SDS011;3137;51.550;7.060;2023-11-18T15:16:19;6.27;;;5.87;;
6207;SDS011;3137;51.550;7.060;2023-11-18T15:18:45;6.17;;;5.60;;
6207;SDS011;3137;51.550;7.060;2023-11-18T15:21:18;14.97;;;6.60;;
6207;SDS011;3137;51.550;7.060;2023-11-18T15:23:45;14.53;;;5.80;;
6207;SDS011;3137;51.550;7.060;2023-11-18T15:26:11;7.40;;;6.90;;